Time;durP1;ratioP1;P1;durP2;ratioP2;P2;SDS_P1;SDS_P2;PMS_P1;PMS_P2;Temp;Humidity;BMP_temperature;BMP_pressure;BME280_temperature;BME280_humidity;BME280_pressure;Samples;Min_cycle;Max_cycle;Signal;HPM_P1;HPM_P2
2021/12/23 00:01:39;;;;;;;7.90;4.15;;;;;;;17.64;40.07;101665.31;5029357;28;20064;-72
2021/12/23 00:04:04;;;;;;;7.22;4.03;;;;;;;17.58;39.42;101676.44;5028903;28;20057;-72
2021/12/23 00:06:29;;;;;;;7.90;4.30;;;;;;;17.60;39.62;101668.34;5011505;28;20136;-73
2021/12/23 00:08:58;;;;;;;6.93;3.88;;;;;;;17.54;39.71;101656.34;5028265;28;20448;-73
2021/12/23 00:11:24;;;;;;;6.75;4.38;;;;;;;17.53;40.06;101659.97;5027706;28;20497;-72
2021/12/23 00:14:00;;;;;;;8.60;4.40;;;;;;;17.52;40.13;101676.88;5011550;28;20065;-72
2021/12/23 00:16:41;;;;;;;8.48;4.35;;;;;;;17.46;39.77;101666.69;5028813;28;20029;-72
2021/12/23 00:19:19;;;;;;;6.85;3.85;;;;;;;17.50;40.14;101676.13;5001246;28;20038;-72
2021/12/23 00:24:28;;;;;;;6.70;4.05;;;;;;;17.43;40.13;101672.22;5014004;28;20084;-73
2021/12/23 00:26:54;;;;;;;7.45;4.32;;;;;;;17.43;39.89;101680.19;5028978;28;20045;-72
2021/12/23 00:29:19;;;;;;;6.43;4.03;;;;;;;17.37;40.10;101651.44;5027654;28;20045;-72
2021/12/23 00:31:44;;;;;;;7.05;4.07;;;;;;;17.37;40.05;101646.16;5028674;28;20098;-72
2021/12/23 00:34:10;;;;;;;7.10;4.20;;;;;;;17.42;40.28;101630.72;5028168;28;20072;-72
2021/12/23 00:36:37;;;;;;;6.57;4.15;;;;;;;17.39;39.94;101623.84;5028582;28;20033;-72
2021/12/23 00:39:05;;;;;;;6.65;4.10;;;;;;;17.37;39.91;101632.88;5027870;28;20116;-71
2021/12/23 00:41:31;;;;;;;7.18;3.63;;;;;;;17.31;40.27;101620.91;5028458;28;20132;-72
2021/12/23 00:43:57;;;;;;;7.47;4.20;;;;;;;17.33;39.75;101600.44;5010930;28;20041;-72
2021/12/23 00:46:23;;;;;;;8.10;4.22;;;;;;;17.32;39.66;101591.63;5028249;28;20406;-72
2021/12/23 00:48:48;;;;;;;8.18;4.03;;;;;;;17.27;39.84;101577.88;5027846;28;20039;-72
2021/12/23 00:51:14;;;;;;;7.65;4.45;;;;;;;17.27;40.08;101572.56;5026827;28;20053;-72
2021/12/23 00:53:40;;;;;;;9.27;4.20;;;;;;;17.31;40.07;101573.19;5010825;28;20045;-72
2021/12/23 00:56:06;;;;;;;7.07;4.05;;;;;;;17.24;39.37;101556.88;5010017;28;20033;-72
2021/12/23 00:58:32;;;;;;;7.00;3.92;;;;;;;17.25;39.76;101561.22;5028212;28;20559;-73
2021/12/23 01:01:38;;;;;;;8.43;4.30;;;;;;;17.21;39.88;101561.56;5028538;28;20409;-73
2021/12/23 01:04:04;;;;;;;6.72;4.05;;;;;;;17.24;40.41;101570.13;5026297;28;20418;-72
2021/12/23 01:06:29;;;;;;;6.70;3.83;;;;;;;17.22;39.89;101563.25;5028158;28;20046;-72
2021/12/23 01:08:55;;;;;;;7.75;4.07;;;;;;;17.20;39.84;101558.03;5026930;28;20049;-72
2021/12/23 01:11:20;;;;;;;7.05;4.03;;;;;;;17.21;39.95;101550.94;5027697;28;20131;-72
2021/12/23 01:14:01;;;;;;;7.70;4.00;;;;;;;17.22;39.40;101563.25;5010615;28;20107;-72
2021/12/23 01:16:48;;;;;;;8.50;4.65;;;;;;;17.11;39.64;101558.75;5027977;28;20405;-72
2021/12/23 01:19:12;;;;;;;6.05;3.90;;;;;;;17.10;39.65;101544.59;5023283;28;20064;-72
2021/12/23 01:21:38;;;;;;;6.43;4.20;;;;;;;17.14;39.82;101537.28;5009578;28;20049;-72
2021/12/23 01:24:03;;;;;;;6.30;4.00;;;;;;;17.09;39.50;101532.31;5027603;28;20045;-72
2021/12/23 01:26:29;;;;;;;6.90;4.38;;;;;;;17.11;39.92;101541.03;5028507;28;20041;-72
2021/12/23 01:28:58;;;;;;;7.43;4.05;;;;;;;17.13;39.81;101532.94;5010534;28;20073;-72
2021/12/23 01:31:24;;;;;;;7.45;4.05;;;;;;;17.06;39.33;101527.25;5010074;28;20061;-72
2021/12/23 01:33:50;;;;;;;6.93;4.10;;;;;;;17.05;40.04;101530.88;5027955;28;20037;-72
2021/12/23 01:36:15;;;;;;;6.70;4.10;;;;;;;17.05;39.76;101525.56;5009790;28;20052;-72
2021/12/23 01:38:41;;;;;;;7.32;3.90;;;;;;;17.07;40.29;101522.78;5028307;28;20092;-72
2021/12/23 01:41:06;;;;;;;7.95;4.18;;;;;;;17.02;39.70;101514.34;5027191;28;20053;-71
2021/12/23 01:43:32;;;;;;;7.35;4.35;;;;;;;16.96;39.78;101507.69;5010460;28;20083;-72
2021/12/23 01:45:57;;;;;;;8.20;4.18;;;;;;;16.99;40.01;101503.97;5010385;28;20375;-72
2021/12/23 01:48:23;;;;;;;6.63;4.00;;;;;;;16.95;40.21;101492.72;5027332;28;20769;-72
2021/12/23 01:50:48;;;;;;;8.02;4.35;;;;;;;16.93;39.76;101493.81;5027434;28;20037;-72
2021/12/23 01:53:13;;;;;;;7.03;4.25;;;;;;;16.86;39.79;101493.41;5026382;28;20412;-72
2021/12/23 01:55:39;;;;;;;6.28;4.20;;;;;;;16.87;39.37;101489.78;5009787;28;20492;-73
2021/12/23 01:58:06;;;;;;;7.00;4.50;;;;;;;16.88;40.34;101478.22;4993239;28;20442;-72
2021/12/23 02:00:33;;;;;;;6.88;4.40;;;;;;;16.86;39.89;101488.13;5009896;28;20046;-73
2021/12/23 02:02:59;;;;;;;10.30;4.47;;;;;;;16.84;39.26;101484.72;5027703;28;20041;-73
2021/12/23 02:05:24;;;;;;;6.45;4.25;;;;;;;16.83;39.79;101481.22;5009794;28;20132;-73
2021/12/23 02:07:50;;;;;;;7.78;4.30;;;;;;;16.81;39.67;101477.84;5030276;28;20548;-73
2021/12/23 02:10:15;;;;;;;6.05;4.20;;;;;;;16.78;39.30;101482.53;5013423;28;20076;-72
2021/12/23 02:12:44;;;;;;;6.47;3.97;;;;;;;16.70;39.63;101490.97;5031631;28;20048;-72
2021/12/23 02:15:10;;;;;;;7.18;4.10;;;;;;;16.78;40.11;101486.00;5031036;28;20554;-72
2021/12/23 02:17:36;;;;;;;6.93;3.95;;;;;;;16.76;39.57;101482.59;5017172;28;20121;-72
2021/12/23 02:20:03;;;;;;;7.30;4.65;;;;;;;16.72;39.39;101470.53;5050407;28;20045;-71
2021/12/23 02:22:28;;;;;;;6.47;4.20;;;;;;;16.74;40.24;101475.72;5012481;28;20087;-72
2021/12/23 02:24:54;;;;;;;7.03;4.00;;;;;;;16.70;39.13;101469.78;5031252;28;20409;-72
2021/12/23 02:27:19;;;;;;;7.72;4.07;;;;;;;16.74;39.83;101468.63;5030626;28;20452;-72
2021/12/23 02:29:44;;;;;;;6.90;4.25;;;;;;;16.69;39.53;101464.59;4997235;28;20069;-72
2021/12/23 02:32:10;;;;;;;6.72;4.30;;;;;;;16.74;39.66;101468.63;5012446;28;20037;-72
2021/12/23 02:34:35;;;;;;;7.95;4.22;;;;;;;16.68;39.49;101458.47;4996987;28;20085;-72
2021/12/23 02:37:00;;;;;;;6.70;4.05;;;;;;;16.69;40.21;101454.84;5030315;28;20448;-68
2021/12/23 02:39:26;;;;;;;5.82;4.10;;;;;;;16.64;39.57;101449.06;5012710;28;20244;-72
2021/12/23 02:41:52;;;;;;;7.05;4.10;;;;;;;16.71;39.79;101438.84;5013253;28;20041;-72
2021/12/23 02:44:17;;;;;;;6.60;3.85;;;;;;;16.65;39.79;101440.16;5030406;28;20055;-72
2021/12/23 02:46:43;;;;;;;9.15;4.35;;;;;;;16.66;39.20;101425.94;4996720;28;20523;-73
2021/12/23 02:49:08;;;;;;;7.82;4.03;;;;;;;16.67;39.83;101424.97;5029816;28;20045;-71
2021/12/23 02:51:34;;;;;;;6.45;4.07;;;;;;;16.69;40.09;101423.06;5013291;28;20504;-72
2021/12/23 02:53:59;;;;;;;8.15;4.57;;;;;;;16.64;39.64;101409.31;5012933;28;20074;-72
2021/12/23 02:56:25;;;;;;;7.80;4.50;;;;;;;16.59;39.72;101407.00;5012447;28;20555;-72
2021/12/23 02:58:50;;;;;;;7.05;4.22;;;;;;;16.63;40.36;101405.81;5030659;28;20633;-72
2021/12/23 03:01:16;;;;;;;7.95;4.70;;;;;;;16.59;39.46;101392.91;5029605;28;20091;-72
2021/12/23 03:03:43;;;;;;;6.93;3.92;;;;;;;16.56;39.94;101404.56;5012691;28;20046;-72
2021/12/23 03:06:09;;;;;;;7.68;4.55;;;;;;;16.56;38.98;101419.63;5029957;28;20454;-72
2021/12/23 03:08:36;;;;;;;7.45;4.75;;;;;;;16.56;40.15;101438.16;5012598;28;20493;-73
2021/12/23 03:11:05;;;;;;;7.38;4.78;;;;;;;16.54;39.54;101450.66;4995071;28;20052;-72
2021/12/23 03:13:31;;;;;;;7.20;4.20;;;;;;;16.53;39.98;101438.38;5030346;28;20049;-72
2021/12/23 03:15:56;;;;;;;6.80;4.25;;;;;;;16.53;39.90;101422.50;5030182;28;20460;-72
2021/12/23 03:18:22;;;;;;;7.80;4.57;;;;;;;16.55;40.13;101436.47;5005075;28;20037;-72
2021/12/23 03:20:47;;;;;;;8.75;4.93;;;;;;;16.49;39.53;101421.88;5049968;28;20444;-73
2021/12/23 03:23:12;;;;;;;9.40;5.20;;;;;;;16.46;39.59;101421.25;5031731;28;20136;-72
2021/12/23 03:25:38;;;;;;;8.20;5.00;;;;;;;16.41;39.37;101425.06;5032399;28;20041;-72
2021/12/23 03:28:03;;;;;;;8.27;5.32;;;;;;;16.45;39.75;101425.69;5049484;28;20056;-72
2021/12/23 03:30:29;;;;;;;8.57;5.10;;;;;;;16.39;39.62;101421.69;5015734;28;20053;-72
2021/12/23 03:32:55;;;;;;;8.40;5.38;;;;;;;16.37;39.83;101426.25;5031889;28;20037;-72
2021/12/23 03:35:21;;;;;;;10.30;5.53;;;;;;;16.41;40.21;101430.34;5015316;28;20131;-72
2021/12/23 03:37:47;;;;;;;9.30;5.82;;;;;;;16.38;39.91;101435.88;5049678;28;20401;-72
2021/12/23 03:40:12;;;;;;;11.00;6.07;;;;;;;16.38;39.75;101430.56;5044959;28;20041;-72
2021/12/23 03:42:39;;;;;;;9.63;5.93;;;;;;;16.36;39.69;101432.50;5011999;28;20045;-72
2021/12/23 03:45:07;;;;;;;10.50;6.53;;;;;;;16.37;39.96;101425.41;5011713;28;20038;-72
2021/12/23 03:47:33;;;;;;;9.48;5.82;;;;;;;16.33;39.88;101421.28;5012360;28;20064;-72
2021/12/23 03:49:58;;;;;;;9.43;6.20;;;;;;;16.37;39.80;101407.72;5029364;28;20136;-72
2021/12/23 03:52:24;;;;;;;11.63;6.60;;;;;;;16.36;39.98;101397.25;5011084;28;20045;-72
2021/12/23 03:54:49;;;;;;;10.77;6.85;;;;;;;16.29;39.62;101396.81;5029556;28;20041;-73
2021/12/23 03:57:15;;;;;;;11.68;6.97;;;;;;;16.32;40.06;101404.53;5011488;28;20092;-72
2021/12/23 03:59:40;;;;;;;11.50;7.45;;;;;;;16.29;39.18;101388.03;5029488;28;20577;-72
2021/12/23 04:02:05;;;;;;;11.52;6.63;;;;;;;16.35;39.05;101377.00;5027874;28;20048;-72
2021/12/23 04:04:31;;;;;;;11.43;7.20;;;;;;;16.26;39.47;101365.25;5029947;28;20053;-72
2021/12/23 04:06:56;;;;;;;13.63;7.63;;;;;;;16.30;39.99;101387.94;5029429;28;20152;-72
2021/12/23 04:09:22;;;;;;;13.45;7.53;;;;;;;16.27;39.08;101401.41;4994687;28;20106;-72
2021/12/23 04:11:47;;;;;;;13.32;7.70;;;;;;;16.29;40.02;101407.41;5029176;28;20042;-72
2021/12/23 04:14:13;;;;;;;13.07;7.90;;;;;;;16.21;40.15;101407.13;5010901;28;20687;-72
2021/12/23 04:16:38;;;;;;;12.32;7.85;;;;;;;16.24;39.27;101416.66;5011448;28;20052;-72
2021/12/23 04:19:07;;;;;;;12.63;7.72;;;;;;;16.25;39.55;101403.28;5043961;28;20517;-72
2021/12/23 04:21:33;;;;;;;13.73;8.38;;;;;;;16.22;39.65;101394.72;5015720;28;20048;-72
2021/12/23 04:23:58;;;;;;;12.23;8.23;;;;;;;16.21;39.94;101380.66;5031074;28;20132;-72
2021/12/23 04:26:24;;;;;;;15.02;8.18;;;;;;;16.17;39.24;101381.84;5048322;28;20124;-73
2021/12/23 04:28:51;;;;;;;12.48;8.15;;;;;;;16.18;39.94;101376.41;5048401;28;20045;-73
2021/12/23 04:31:20;;;;;;;14.68;8.45;;;;;;;16.16;39.89;101372.19;5048065;28;20133;-72
2021/12/23 04:33:46;;;;;;;14.48;8.80;;;;;;;16.14;40.42;101372.31;4995806;28;20077;-72
2021/12/23 04:36:11;;;;;;;14.20;8.63;;;;;;;16.18;40.55;101365.00;5027801;28;20095;-72
2021/12/23 04:38:37;;;;;;;14.60;9.10;;;;;;;16.15;40.27;101360.75;5028698;28;20128;-72
2021/12/23 04:41:03;;;;;;;15.48;9.27;;;;;;;16.12;39.82;101355.69;5010612;28;20049;-72
2021/12/23 04:43:29;;;;;;;15.55;9.85;;;;;;;16.17;39.70;101358.84;4994328;28;20086;-72
2021/12/23 04:45:54;;;;;;;15.10;10.13;;;;;;;16.09;40.43;101350.59;5028326;28;20558;-72
2021/12/23 04:48:19;;;;;;;15.85;9.88;;;;;;;16.13;40.32;101367.09;5027795;28;20493;-72
2021/12/23 04:50:45;;;;;;;16.33;10.48;;;;;;;16.07;39.98;101368.38;5010596;28;20077;-72
2021/12/23 04:53:10;;;;;;;16.75;10.35;;;;;;;16.18;40.30;101372.94;5027493;28;20045;-72
2021/12/23 04:55:36;;;;;;;15.80;9.85;;;;;;;16.18;40.22;101354.41;5028537;28;20044;-72
2021/12/23 04:58:01;;;;;;;17.38;10.77;;;;;;;16.23;39.64;101335.53;5010479;28;20107;-72
2021/12/23 05:00:26;;;;;;;18.35;11.40;;;;;;;16.29;39.44;101325.31;4994251;28;20528;-72
2021/12/23 05:02:52;;;;;;;16.65;11.20;;;;;;;16.31;39.72;101302.25;5010694;28;20037;-72
2021/12/23 05:05:17;;;;;;;18.20;11.18;;;;;;;16.35;39.25;101293.09;5027827;28;20128;-72
2021/12/23 05:07:43;;;;;;;19.60;11.48;;;;;;;16.38;39.42;101277.00;5010386;28;20557;-72
2021/12/23 05:10:09;;;;;;;19.27;11.93;;;;;;;16.53;39.43;101271.53;5010051;28;20156;-72
2021/12/23 05:12:41;;;;;;;19.38;11.73;;;;;;;16.59;38.86;101300.19;4994187;28;20429;-72
2021/12/23 05:15:08;;;;;;;18.70;12.18;;;;;;;16.65;38.84;101311.16;5011238;28;20034;-71
2021/12/23 05:17:33;;;;;;;20.25;11.63;;;;;;;16.73;39.24;101328.28;5014058;28;20049;-73
2021/12/23 05:19:59;;;;;;;19.17;12.35;;;;;;;16.82;39.32;101312.56;5012791;28;20119;-72
2021/12/23 05:22:24;;;;;;;19.00;11.55;;;;;;;16.92;38.50;101311.88;5027827;28;20041;-72
2021/12/23 05:24:51;;;;;;;23.20;12.15;;;;;;;17.00;38.64;101304.19;5010394;28;20064;-72
2021/12/23 05:27:17;;;;;;;19.35;11.80;;;;;;;17.13;38.57;101283.72;5010423;28;20481;-72
2021/12/23 05:29:42;;;;;;;18.67;11.88;;;;;;;17.23;38.84;101284.69;5028092;28;20045;-72
2021/12/23 05:32:08;;;;;;;17.70;11.38;;;;;;;17.34;38.38;101265.31;5026826;28;20394;-65
2021/12/23 05:34:33;;;;;;;18.05;11.52;;;;;;;17.41;38.83;101255.06;5013519;28;20045;-76
2021/12/23 05:36:59;;;;;;;19.50;11.75;;;;;;;17.48;38.93;101261.53;5036918;28;20128;-75
2021/12/23 05:39:24;;;;;;;18.17;11.02;;;;;;;17.53;39.35;101267.34;5038302;28;20065;-74
2021/12/23 05:41:49;;;;;;;18.88;11.68;;;;;;;17.62;39.64;101263.97;5033332;28;20045;-74
2021/12/23 05:44:15;;;;;;;18.52;11.00;;;;;;;17.72;39.38;101264.91;5013387;28;20486;-74
2021/12/23 05:46:40;;;;;;;18.30;11.02;;;;;;;17.77;39.27;101261.94;5031841;28;20438;-74
2021/12/23 05:49:06;;;;;;;18.40;10.70;;;;;;;17.84;39.26;101246.34;5031127;28;20048;-73
2021/12/23 05:51:31;;;;;;;16.95;10.70;;;;;;;17.89;39.28;101244.16;5031134;28;20043;-74
2021/12/23 05:53:57;;;;;;;20.10;11.80;;;;;;;17.92;39.41;101267.78;5014220;28;20048;-74
2021/12/23 05:56:22;;;;;;;20.65;11.63;;;;;;;17.95;39.37;101272.84;5031420;28;20044;-75
2021/12/23 05:58:48;;;;;;;17.33;11.10;;;;;;;17.98;39.35;101267.28;5031369;28;20069;-75
2021/12/23 06:01:13;;;;;;;19.10;11.60;;;;;;;17.99;39.31;101276.97;5011818;28;20043;-74
2021/12/23 06:03:40;;;;;;;21.70;11.85;;;;;;;17.99;39.55;101255.72;5038556;28;20470;-75
2021/12/23 06:06:05;;;;;;;17.58;11.65;;;;;;;18.03;39.60;101265.13;5034595;28;20077;-73
2021/12/23 06:08:31;;;;;;;19.02;11.85;;;;;;;18.04;39.75;101269.44;5031515;28;20072;-74
2021/12/23 06:10:56;;;;;;;20.25;12.18;;;;;;;18.06;39.78;101267.53;5031245;28;20047;-74
2021/12/23 06:13:22;;;;;;;19.85;11.55;;;;;;;18.05;39.94;101263.19;5030394;28;20194;-73
2021/12/23 06:15:47;;;;;;;18.35;12.02;;;;;;;18.08;39.74;101265.56;5034484;28;20045;-74
2021/12/23 06:18:13;;;;;;;19.23;12.05;;;;;;;18.09;39.95;101259.31;5050711;28;20489;-73
2021/12/23 06:20:38;;;;;;;19.48;11.85;;;;;;;18.11;40.47;101264.47;5027592;28;20069;-74
2021/12/23 06:23:05;;;;;;;16.90;10.98;;;;;;;18.15;40.00;101256.16;5042934;28;20041;-72
2021/12/23 06:25:30;;;;;;;18.05;11.43;;;;;;;18.20;40.20;101247.78;5015582;28;20088;-72
2021/12/23 06:27:56;;;;;;;16.92;11.23;;;;;;;18.23;40.21;101253.69;5051167;28;20514;-72
2021/12/23 06:30:21;;;;;;;15.93;10.55;;;;;;;18.26;40.46;101245.47;5050342;28;20045;-72
2021/12/23 06:32:50;;;;;;;16.75;10.48;;;;;;;18.30;40.53;101234.59;5033623;28;20099;-73
2021/12/23 06:35:15;;;;;;;16.63;10.18;;;;;;;18.32;40.19;101230.00;5012495;28;20140;-72
2021/12/23 06:37:41;;;;;;;17.63;11.98;;;;;;;18.36;40.65;101226.09;5013235;28;20390;-72
2021/12/23 06:40:07;;;;;;;15.27;10.25;;;;;;;18.40;40.66;101223.06;5030251;28;20068;-72
2021/12/23 06:42:32;;;;;;;15.23;10.35;;;;;;;18.44;40.39;101223.66;5022257;28;20056;-73
2021/12/23 06:44:57;;;;;;;15.02;10.10;;;;;;;18.45;40.55;101206.75;5012438;28;20048;-73
2021/12/23 06:47:23;;;;;;;15.32;10.18;;;;;;;18.49;40.65;101218.81;5028827;28;20132;-73
2021/12/23 06:49:48;;;;;;;16.42;10.80;;;;;;;18.52;40.69;101218.56;5030332;28;20044;-73
2021/12/23 06:52:14;;;;;;;16.15;10.55;;;;;;;18.53;40.61;101206.09;5013475;28;20128;-74
2021/12/23 06:54:43;;;;;;;16.20;10.70;;;;;;;18.56;40.73;101195.22;5021368;28;20038;-75
2021/12/23 06:57:09;;;;;;;15.70;9.55;;;;;;;18.55;40.82;101182.88;5012061;28;20124;-74
2021/12/23 06:59:34;;;;;;;16.85;11.48;;;;;;;18.58;40.91;101202.06;5011994;28;20049;-73
2021/12/23 07:02:00;;;;;;;16.52;10.55;;;;;;;18.60;40.51;101202.78;5034796;28;20402;-73
2021/12/23 07:04:30;;;;;;;15.23;10.23;;;;;;;18.62;40.52;101198.19;5029809;28;20087;-73
2021/12/23 07:07:08;;;;;;;19.00;10.20;;;;;;;18.63;40.37;101199.88;5024048;28;20128;-73
2021/12/23 07:09:40;;;;;;;16.20;10.55;;;;;;;18.66;40.45;101180.16;5039224;28;20106;-73
2021/12/23 07:12:07;;;;;;;14.65;9.57;;;;;;;18.68;40.34;101192.34;5034054;28;20048;-71
2021/12/23 07:14:32;;;;;;;15.63;9.82;;;;;;;18.66;40.80;101201.44;5024823;28;20507;-73
2021/12/23 07:16:58;;;;;;;15.75;10.18;;;;;;;18.69;40.87;101202.00;5029480;28;20037;-74
2021/12/23 07:19:23;;;;;;;14.55;9.40;;;;;;;18.70;41.06;101201.00;5048106;28;20060;-73
2021/12/23 07:21:49;;;;;;;14.55;10.10;;;;;;;18.71;40.65;101193.91;5035397;28;20049;-73
2021/12/23 07:24:14;;;;;;;14.38;9.32;;;;;;;18.71;40.38;101200.06;5013235;28;20053;-73
2021/12/23 07:26:39;;;;;;;14.80;10.20;;;;;;;18.73;40.67;101198.13;5027159;28;20456;-74
2021/12/23 07:29:05;;;;;;;16.08;10.18;;;;;;;18.75;40.30;101189.22;5014194;28;20108;-72
2021/12/23 07:31:30;;;;;;;13.88;9.25;;;;;;;18.77;40.70;101181.91;5034055;28;20044;-74
2021/12/23 07:33:56;;;;;;;19.25;11.15;;;;;;;18.53;40.73;101175.06;5038379;28;20500;-77
2021/12/23 07:36:27;;;;;;;16.45;11.00;;;;;;;18.61;40.85;101171.72;5014436;28;20053;-78
2021/12/23 07:38:54;;;;;;;17.50;10.40;;;;;;;18.67;40.72;101176.53;5037861;28;20052;-78
2021/12/23 07:41:19;;;;;;;14.80;9.68;;;;;;;18.72;40.89;101179.66;5033254;28;20061;-78
2021/12/23 07:43:55;;;;;;;15.15;9.88;;;;;;;18.74;40.46;101185.72;5034646;28;20037;-78
2021/12/23 07:46:21;;;;;;;15.23;9.70;;;;;;;18.77;40.25;101180.13;5034606;28;20143;-78
2021/12/23 07:48:46;;;;;;;13.45;9.00;;;;;;;18.77;40.60;101171.28;5031065;28;20041;-78
2021/12/23 07:51:11;;;;;;;14.38;9.05;;;;;;;18.77;40.77;101172.16;5047689;28;20393;-78
2021/12/23 07:53:37;;;;;;;14.00;9.05;;;;;;;18.77;40.31;101161.53;5042122;28;20049;-75
2021/12/23 07:56:03;;;;;;;15.35;9.32;;;;;;;18.76;40.73;101162.47;5015634;28;20092;-74
2021/12/23 07:58:28;;;;;;;14.10;9.15;;;;;;;18.76;40.22;101170.44;5029905;28;20084;-75
2021/12/23 08:00:53;;;;;;;13.73;9.02;;;;;;;18.76;40.35;101170.44;5027965;28;20066;-76
2021/12/23 08:03:19;;;;;;;14.27;8.75;;;;;;;18.78;40.48;101163.19;5010892;28;20478;-75
2021/12/23 08:05:44;;;;;;;12.88;8.57;;;;;;;18.79;40.25;101166.69;5027778;28;20227;-75
2021/12/23 08:08:10;;;;;;;12.25;8.50;;;;;;;18.78;40.54;101173.00;5042290;28;20043;-74
2021/12/23 08:10:35;;;;;;;13.95;9.30;;;;;;;18.75;40.60;101178.56;5040148;28;20378;-74
2021/12/23 08:13:01;;;;;;;14.10;8.80;;;;;;;18.74;40.58;101191.03;5009667;28;20045;-70
2021/12/23 08:15:27;;;;;;;14.30;9.38;;;;;;;18.72;40.00;101169.88;5009956;28;20049;-74
2021/12/23 08:17:52;;;;;;;13.85;9.40;;;;;;;18.71;40.12;101164.69;5033984;28;20040;-74
2021/12/23 08:20:17;;;;;;;14.02;9.25;;;;;;;18.71;40.50;101151.38;5026388;28;20501;-74
2021/12/23 08:22:43;;;;;;;14.05;8.93;;;;;;;18.72;40.39;101153.94;5028340;28;20505;-74
2021/12/23 08:25:10;;;;;;;13.32;8.45;;;;;;;18.74;39.80;101145.84;5009069;28;20041;-74
2021/12/23 08:27:35;;;;;;;13.52;8.70;;;;;;;18.73;40.06;101138.81;4994189;28;20042;-74
2021/12/23 08:30:03;;;;;;;13.18;8.80;;;;;;;18.71;40.07;101128.31;5027006;28;20432;-71
2021/12/23 08:32:28;;;;;;;13.88;9.10;;;;;;;18.72;40.46;101126.50;5027025;28;20056;-74
2021/12/23 08:34:53;;;;;;;15.02;9.45;;;;;;;18.70;39.93;101118.63;5027691;28;20049;-74
2021/12/23 08:37:19;;;;;;;18.15;9.63;;;;;;;18.68;40.57;101109.13;5027241;28;20425;-75
2021/12/23 08:39:47;;;;;;;13.68;8.77;;;;;;;18.67;40.77;101110.91;5009583;28;20048;-75
2021/12/23 08:42:12;;;;;;;13.85;9.20;;;;;;;18.67;40.24;101089.66;5009170;28;20119;-74
2021/12/23 08:44:40;;;;;;;12.48;8.18;;;;;;;18.69;40.53;101090.38;5026796;28;20045;-75
2021/12/23 08:47:06;;;;;;;11.45;7.93;;;;;;;18.70;40.43;101118.63;5031629;28;20562;-79
2021/12/23 08:49:31;;;;;;;12.43;8.07;;;;;;;18.65;40.21;101109.41;5038495;28;20054;-77
2021/12/23 08:51:56;;;;;;;12.68;8.05;;;;;;;18.61;40.45;101092.00;5034373;28;20076;-78
2021/12/23 08:54:22;;;;;;;15.15;9.20;;;;;;;18.66;39.64;101077.38;5009941;28;20144;-69
2021/12/23 08:56:47;;;;;;;13.98;9.10;;;;;;;18.60;40.02;101064.59;5023833;28;20555;-68
2021/12/23 08:59:13;;;;;;;15.32;9.00;;;;;;;18.61;40.69;101050.34;5027521;28;20061;-68
2021/12/23 09:01:39;;;;;;;15.55;9.75;;;;;;;18.53;40.00;101044.03;5016620;28;20484;-68
2021/12/23 09:04:05;;;;;;;16.65;9.57;;;;;;;18.52;40.98;101045.00;4999923;28;20044;-68
2021/12/23 09:06:30;;;;;;;14.82;9.65;;;;;;;18.53;40.59;101059.97;5028874;28;20042;-68
2021/12/23 09:08:57;;;;;;;17.85;9.70;;;;;;;18.52;40.52;101058.28;5033000;28;20537;-68
2021/12/23 09:11:23;;;;;;;17.27;9.88;;;;;;;18.54;40.92;101041.22;5028116;28;20115;-69
2021/12/23 09:13:48;;;;;;;15.13;9.35;;;;;;;18.53;40.87;101031.59;5019060;28;20067;-68
2021/12/23 09:16:14;;;;;;;14.52;9.48;;;;;;;18.52;40.86;101007.78;5018141;28;20140;-68
2021/12/23 09:18:39;;;;;;;17.10;9.65;;;;;;;18.46;40.73;101004.72;5043373;28;20094;-68
2021/12/23 09:21:05;;;;;;;14.65;8.85;;;;;;;18.45;40.33;101023.44;5037895;28;20489;-68
2021/12/23 09:23:30;;;;;;;13.80;9.05;;;;;;;18.45;40.72;101026.94;4995371;28;20156;-68
2021/12/23 09:25:56;;;;;;;18.88;9.52;;;;;;;18.46;40.63;101025.13;5039084;28;20587;-68
2021/12/23 09:33:30;;;;;;;14.48;9.00;;;;;;;18.39;40.06;101008.03;5013305;28;20417;-68
2021/12/23 09:35:56;;;;;;;13.73;8.70;;;;;;;18.38;40.15;101023.13;5029503;28;20037;-68
2021/12/23 09:38:27;;;;;;;13.05;7.85;;;;;;;18.40;40.49;101028.31;5035587;28;20116;-68
2021/12/23 09:40:54;;;;;;;15.85;9.40;;;;;;;18.37;40.55;101023.28;5034425;28;20049;-68
2021/12/23 09:43:19;;;;;;;14.30;9.25;;;;;;;18.40;40.10;101015.88;5011667;28;20041;-68
2021/12/23 09:45:46;;;;;;;14.45;8.75;;;;;;;18.40;40.38;101023.00;5005850;28;20052;-68
2021/12/23 09:48:12;;;;;;;14.93;8.85;;;;;;;18.41;40.16;101041.47;5042531;28;20052;-67
2021/12/23 09:50:39;;;;;;;12.80;8.40;;;;;;;18.42;40.27;101040.47;5008489;28;20774;-68
2021/12/23 09:53:04;;;;;;;15.18;8.70;;;;;;;18.40;39.82;101030.97;4993587;28;20076;-68
2021/12/23 09:55:30;;;;;;;13.68;8.85;;;;;;;18.37;40.24;101032.09;5009813;28;20045;-68
2021/12/23 09:57:57;;;;;;;14.15;8.80;;;;;;;18.40;40.15;101036.28;5015626;28;20501;-68
2021/12/23 10:00:25;;;;;;;14.63;9.27;;;;;;;18.40;40.04;101033.63;5009465;28;20549;-68
2021/12/23 10:02:51;;;;;;;13.63;8.02;;;;;;;18.44;40.16;101035.03;4993211;28;20037;-68
2021/12/23 10:05:22;;;;;;;14.75;9.38;;;;;;;18.43;39.87;101030.72;5007631;28;20107;-68
2021/12/23 10:07:49;;;;;;;14.55;8.77;;;;;;;18.43;40.26;101009.47;5037958;28;20041;-68
2021/12/23 10:10:37;;;;;;;13.32;8.57;;;;;;;18.44;39.91;101003.16;5018822;28;20045;-68
2021/12/23 10:32:55;;;;;;;15.43;8.88;;;;;;;18.45;39.63;101002.19;5028872;28;20045;-68
2021/12/23 10:38:42;;;;;;;13.90;8.30;;;;;;;18.46;39.80;100998.56;5021541;28;20857;-68
2021/12/23 10:41:09;;;;;;;;;;;;;;;18.45;39.54;100997.69;5023633;28;20046;-68
2021/12/23 10:43:48;;;;;;;12.05;7.25;;;;;;;18.47;40.09;100989.63;5028944;28;20007;-68
2021/12/23 10:46:22;;;;;;;15.82;8.00;;;;;;;18.54;40.68;100984.59;5027270;28;20041;-70
2021/12/23 10:49:05;;;;;;;15.25;8.77;;;;;;;18.53;39.80;100985.59;5029423;28;20409;-68
2021/12/23 10:52:17;;;;;;;13.93;7.95;;;;;;;18.52;40.30;100975.91;5029293;28;20410;-68
2021/12/23 11:00:22;;;;;;;11.65;7.72;;;;;;;18.49;39.75;100969.09;5041124;28;20110;-68
2021/12/23 11:03:15;;;;;;;12.73;7.78;;;;;;;18.52;39.99;100979.44;5013168;28;20041;-68
2021/12/23 11:05:47;;;;;;;14.15;8.10;;;;;;;18.51;40.46;100972.41;5011192;28;20418;-68
2021/12/23 11:08:24;;;;;;;13.52;7.70;;;;;;;18.52;40.49;100981.22;5027850;28;20037;-68
2021/12/23 11:41:20;;;;;;;14.00;8.13;;;;;;;18.61;40.02;100896.22;5020452;28;20110;-73
2021/12/23 11:43:51;;;;;;;11.95;6.97;;;;;;;18.73;40.35;100889.84;5015496;28;20095;-72
2021/12/23 11:46:17;;;;;;;;;;;;;;;18.81;40.34;100875.03;5013754;28;20045;-75
2021/12/23 11:48:45;;;;;;;11.63;5.32;;;;;;;18.91;40.41;100860.75;5019922;28;19934;-73
2021/12/23 11:51:28;;;;;;;9.98;6.07;;;;;;;18.92;40.14;100856.25;4993397;28;20402;-75
2021/12/23 11:53:54;;;;;;;10.73;6.00;;;;;;;18.95;40.62;100850.66;5026729;28;20465;-75
2021/12/23 11:56:19;;;;;;;9.80;5.75;;;;;;;18.99;40.38;100846.75;5026741;28;20033;-73
2021/12/23 11:58:47;;;;;;;15.02;8.20;;;;;;;18.78;40.72;100832.78;5010910;28;20037;-78
2021/12/23 12:01:23;;;;;;;12.95;6.88;;;;;;;18.84;40.40;100830.41;5004157;28;20099;-68
2021/12/23 12:04:05;;;;;;;12.13;7.18;;;;;;;18.80;40.57;100825.50;5023118;28;20532;-68
2021/12/23 12:06:38;;;;;;;12.40;7.20;;;;;;;18.77;40.08;100820.47;5027714;28;20045;-68
2021/12/23 12:09:16;;;;;;;12.95;7.18;;;;;;;18.71;40.85;100824.50;5027542;28;20049;-68
2021/12/23 12:12:02;;;;;;;12.60;7.32;;;;;;;18.72;40.77;100826.19;5009846;28;20037;-68
2021/12/23 12:14:38;;;;;;;12.35;6.75;;;;;;;18.70;40.69;100809.53;5031055;28;20076;-68
2021/12/23 12:17:25;;;;;;;13.40;6.75;;;;;;;18.66;40.44;100814.28;5047607;28;20132;-68
2021/12/23 12:19:51;;;;;;;12.13;7.07;;;;;;;18.68;40.59;100807.03;5022304;28;20053;-68
2021/12/23 12:22:53;;;;;;;11.27;6.95;;;;;;;18.66;40.49;100798.34;5036720;28;20055;-68
2021/12/23 12:25:24;;;;;;;13.32;6.90;;;;;;;18.62;40.54;100796.94;5037214;28;20132;-67
2021/12/23 12:27:56;;;;;;;18.52;10.30;;;;;;;18.14;40.42;100791.59;5047068;28;20558;-67